sensor_id;sensor_type;location;lat;lon;timestamp;temperature;humidity
5007;DHT22;2522;50.972;11.046;2022-10-16T05:03:06;14.10;99.90
5007;DHT22;2522;50.972;11.046;2022-10-16T05:05:34;14.10;99.90
5007;DHT22;2522;50.972;11.046;2022-10-16T05:08:01;14.10;99.90
5007;DHT22;2522;50.972;11.046;2022-10-16T05:10:28;14.10;99.90
5007;DHT22;2522;50.972;11.046;2022-10-16T05:12:55;14.10;99.90
5007;DHT22;2522;50.972;11.046;2022-10-16T05:15:21;14.10;99.90
5007;DHT22;2522;50.972;11.046;2022-10-16T05:17:51;14.20;99.90
5007;DHT22;2522;50.972;11.046;2022-10-16T05:20:20;14.10;99.90
5007;DHT22;2522;50.972;11.046;2022-10-16T05:22:46;14.20;99.90
5007;DHT22;2522;50.972;11.046;2022-10-16T05:25:13;14.20;99.90
5007;DHT22;2522;50.972;11.046;2022-10-16T05:27:40;14.20;99.90
5007;DHT22;2522;50.972;11.046;2022-10-16T05:30:07;14.20;99.90
5007;DHT22;2522;50.972;11.046;2022-10-16T05:32:34;14.30;99.90
5007;DHT22;2522;50.972;11.046;2022-10-16T05:35:00;14.30;99.90
5007;DHT22;2522;50.972;11.046;2022-10-16T05:37:29;14.30;99.90
5007;DHT22;2522;50.972;11.046;2022-10-16T05:39:55;14.30;99.90
5007;DHT22;2522;50.972;11.046;2022-10-16T05:42:24;14.30;99.90
5007;DHT22;2522;50.972;11.046;2022-10-16T05:44:51;14.40;99.90
5007;DHT22;2522;50.972;11.046;2022-10-16T05:47:17;14.40;99.90
5007;DHT22;2522;50.972;11.046;2022-10-16T05:49:46;14.40;99.90
5007;DHT22;2522;50.972;11.046;2022-10-16T05:52:12;14.40;99.90
5007;DHT22;2522;50.972;11.046;2022-10-16T05:54:41;14.40;99.90
5007;DHT22;2522;50.972;11.046;2022-10-16T05:57:07;14.40;99.90
5007;DHT22;2522;50.972;11.046;2022-10-16T05:59:34;14.40;99.90
5007;DHT22;2522;50.972;11.046;2022-10-16T06:02:01;14.40;99.90
5007;DHT22;2522;50.972;11.046;2022-10-16T06:04:27;14.40;99.90
5007;DHT22;2522;50.972;11.046;2022-10-16T06:06:54;14.40;99.90
5007;DHT22;2522;50.972;11.046;2022-10-16T06:09:25;14.50;99.90
5007;DHT22;2522;50.972;11.046;2022-10-16T06:11:53;14.50;99.90
5007;DHT22;2522;50.972;11.046;2022-10-16T06:14:20;14.50;99.90
5007;DHT22;2522;50.972;11.046;2022-10-16T06:16:47;14.50;99.90
5007;DHT22;2522;50.972;11.046;2022-10-16T06:19:13;14.60;99.90
5007;DHT22;2522;50.972;11.046;2022-10-16T06:21:41;14.60;99.90
5007;DHT22;2522;50.972;11.046;2022-10-16T06:24:08;14.70;99.90
5007;DHT22;2522;50.972;11.046;2022-10-16T06:26:35;14.70;99.90
5007;DHT22;2522;50.972;11.046;2022-10-16T06:29:03;14.80;99.90
5007;DHT22;2522;50.972;11.046;2022-10-16T06:31:29;14.90;99.90
5007;DHT22;2522;50.972;11.046;2022-10-16T06:33:58;15.00;99.90
5007;DHT22;2522;50.972;11.046;2022-10-16T06:36:25;15.00;99.90
5007;DHT22;2522;50.972;11.046;2022-10-16T06:38:52;15.10;99.90
5007;DHT22;2522;50.972;11.046;2022-10-16T06:41:20;15.20;99.90
5007;DHT22;2522;50.972;11.046;2022-10-16T06:43:46;15.20;99.90
5007;DHT22;2522;50.972;11.046;2022-10-16T06:46:16;15.20;99.90
5007;DHT22;2522;50.972;11.046;2022-10-16T06:48:43;15.30;99.90
5007;DHT22;2522;50.972;11.046;2022-10-16T06:51:11;15.30;99.90
5007;DHT22;2522;50.972;11.046;2022-10-16T06:53:39;15.40;99.90
5007;DHT22;2522;50.972;11.046;2022-10-16T06:56:06;15.40;99.90
5007;DHT22;2522;50.972;11.046;2022-10-16T06:58:33;15.40;99.90
5007;DHT22;2522;50.972;11.046;2022-10-16T07:01:00;15.50;99.90
5007;DHT22;2522;50.972;11.046;2022-10-16T07:03:28;15.60;99.90
5007;DHT22;2522;50.972;11.046;2022-10-16T07:05:55;15.60;99.90
5007;DHT22;2522;50.972;11.046;2022-10-16T07:08:21;15.70;99.90
5007;DHT22;2522;50.972;11.046;2022-10-16T07:10:48;15.70;99.90
5007;DHT22;2522;50.972;11.046;2022-10-16T07:13:15;15.80;99.90
5007;DHT22;2522;50.972;11.046;2022-10-16T07:15:41;15.90;99.90
5007;DHT22;2522;50.972;11.046;2022-10-16T07:18:08;16.00;99.90
5007;DHT22;2522;50.972;11.046;2022-10-16T07:20:42;16.00;99.90
5007;DHT22;2522;50.972;11.046;2022-10-16T07:23:09;16.10;99.90
5007;DHT22;2522;50.972;11.046;2022-10-16T07:25:36;16.20;99.90
5007;DHT22;2522;50.972;11.046;2022-10-16T07:28:03;16.30;99.90
5007;DHT22;2522;50.972;11.046;2022-10-16T07:30:29;16.30;99.90
5007;DHT22;2522;50.972;11.046;2022-10-16T07:32:56;16.40;99.90
5007;DHT22;2522;50.972;11.046;2022-10-16T07:35:23;16.50;99.90
5007;DHT22;2522;50.972;11.046;2022-10-16T07:37:51;16.60;99.90
5007;DHT22;2522;50.972;11.046;2022-10-16T07:40:19;16.70;99.90
5007;DHT22;2522;50.972;11.046;2022-10-16T07:42:46;16.70;99.90
5007;DHT22;2522;50.972;11.046;2022-10-16T07:45:13;16.80;99.90
5007;DHT22;2522;50.972;11.046;2022-10-16T07:47:39;16.90;99.90
5007;DHT22;2522;50.972;11.046;2022-10-16T07:50:06;17.00;99.90
5007;DHT22;2522;50.972;11.046;2022-10-16T07:52:33;17.10;99.90
5007;DHT22;2522;50.972;11.046;2022-10-16T07:55:01;17.20;99.90
5007;DHT22;2522;50.972;11.046;2022-10-16T07:57:28;17.30;99.90
5007;DHT22;2522;50.972;11.046;2022-10-16T07:59:55;17.30;99.90
5007;DHT22;2522;50.972;11.046;2022-10-16T08:02:22;17.50;99.90
5007;DHT22;2522;50.972;11.046;2022-10-16T08:04:48;17.50;99.90
5007;DHT22;2522;50.972;11.046;2022-10-16T08:07:15;17.60;99.90
5007;DHT22;2522;50.972;11.046;2022-10-16T08:09:42;17.60;99.90
5007;DHT22;2522;50.972;11.046;2022-10-16T08:12:10;17.70;99.90
5007;DHT22;2522;50.972;11.046;2022-10-16T08:14:37;17.80;99.90
5007;DHT22;2522;50.972;11.046;2022-10-16T08:17:04;17.80;99.90
5007;DHT22;2522;50.972;11.046;2022-10-16T08:19:34;17.90;99.90
5007;DHT22;2522;50.972;11.046;2022-10-16T08:22:01;18.00;99.90
5007;DHT22;2522;50.972;11.046;2022-10-16T08:24:28;18.10;99.90
5007;DHT22;2522;50.972;11.046;2022-10-16T08:26:56;18.20;99.90
5007;DHT22;2522;50.972;11.046;2022-10-16T08:29:24;18.40;99.90
5007;DHT22;2522;50.972;11.046;2022-10-16T08:31:51;18.40;99.90
5007;DHT22;2522;50.972;11.046;2022-10-16T08:34:18;18.50;99.90
5007;DHT22;2522;50.972;11.046;2022-10-16T08:36:45;18.60;99.90
5007;DHT22;2522;50.972;11.046;2022-10-16T08:39:11;18.60;99.90
5007;DHT22;2522;50.972;11.046;2022-10-16T08:41:50;18.70;99.90
5007;DHT22;2522;50.972;11.046;2022-10-16T08:44:27;18.80;99.90
5007;DHT22;2522;50.972;11.046;2022-10-16T08:46:58;18.90;99.90
5007;DHT22;2522;50.972;11.046;2022-10-16T08:49:27;19.10;99.90
5007;DHT22;2522;50.972;11.046;2022-10-16T08:51:54;19.20;99.90
5007;DHT22;2522;50.972;11.046;2022-10-16T08:54:24;19.30;99.90
5007;DHT22;2522;50.972;11.046;2022-10-16T08:56:53;19.40;99.90
5007;DHT22;2522;50.972;11.046;2022-10-16T08:59:20;19.50;99.90
5007;DHT22;2522;50.972;11.046;2022-10-16T09:01:49;19.60;99.90
5007;DHT22;2522;50.972;11.046;2022-10-16T09:04:23;19.60;99.90
5007;DHT22;2522;50.972;11.046;2022-10-16T09:06:55;19.60;99.90
5007;DHT22;2522;50.972;11.046;2022-10-16T09:09:29;19.70;99.90
5007;DHT22;2522;50.972;11.046;2022-10-16T09:12:00;19.70;99.90
5007;DHT22;2522;50.972;11.046;2022-10-16T09:14:38;19.80;99.90
5007;DHT22;2522;50.972;11.046;2022-10-16T09:17:12;19.80;99.90
5007;DHT22;2522;50.972;11.046;2022-10-16T09:19:40;19.80;99.90
5007;DHT22;2522;50.972;11.046;2022-10-16T09:22:12;19.80;99.90
5007;DHT22;2522;50.972;11.046;2022-10-16T09:24:39;19.80;99.90
5007;DHT22;2522;50.972;11.046;2022-10-16T09:27:06;19.80;99.90
5007;DHT22;2522;50.972;11.046;2022-10-16T09:29:34;19.80;99.90
5007;DHT22;2522;50.972;11.046;2022-10-16T09:32:07;19.80;99.90
5007;DHT22;2522;50.972;11.046;2022-10-16T09:34:39;19.80;99.90
5007;DHT22;2522;50.972;11.046;2022-10-16T09:37:08;19.90;99.90
5007;DHT22;2522;50.972;11.046;2022-10-16T09:39:43;20.00;99.90
5007;DHT22;2522;50.972;11.046;2022-10-16T09:42:10;20.00;99.90
5007;DHT22;2522;50.972;11.046;2022-10-16T09:44:38;20.10;99.90
5007;DHT22;2522;50.972;11.046;2022-10-16T09:47:06;20.20;99.90
5007;DHT22;2522;50.972;11.046;2022-10-16T09:49:49;20.20;99.90
5007;DHT22;2522;50.972;11.046;2022-10-16T09:52:16;20.30;99.90
5007;DHT22;2522;50.972;11.046;2022-10-16T09:54:51;20.30;99.90
5007;DHT22;2522;50.972;11.046;2022-10-16T09:57:18;20.30;99.90
5007;DHT22;2522;50.972;11.046;2022-10-16T09:59:46;20.30;99.90
5007;DHT22;2522;50.972;11.046;2022-10-16T10:02:14;20.40;99.90
5007;DHT22;2522;50.972;11.046;2022-10-16T10:04:44;20.40;99.90
5007;DHT22;2522;50.972;11.046;2022-10-16T10:07:21;20.50;99.90
5007;DHT22;2522;50.972;11.046;2022-10-16T10:09:49;20.50;99.90
5007;DHT22;2522;50.972;11.046;2022-10-16T10:12:17;20.50;99.90
5007;DHT22;2522;50.972;11.046;2022-10-16T10:14:46;20.50;99.90
5007;DHT22;2522;50.972;11.046;2022-10-16T10:17:14;20.50;99.90
5007;DHT22;2522;50.972;11.046;2022-10-16T10:19:44;20.50;99.90
5007;DHT22;2522;50.972;11.046;2022-10-16T10:22:19;20.50;99.90
5007;DHT22;2522;50.972;11.046;2022-10-16T10:24:54;20.50;99.90
5007;DHT22;2522;50.972;11.046;2022-10-16T10:27:21;20.60;99.90
5007;DHT22;2522;50.972;11.046;2022-10-16T10:29:52;20.60;99.90
5007;DHT22;2522;50.972;11.046;2022-10-16T10:32:22;20.60;99.90
5007;DHT22;2522;50.972;11.046;2022-10-16T10:34:57;20.60;99.90
5007;DHT22;2522;50.972;11.046;2022-10-16T10:37:30;20.60;99.90
5007;DHT22;2522;50.972;11.046;2022-10-16T10:40:02;20.50;99.90
5007;DHT22;2522;50.972;11.046;2022-10-16T10:42:33;20.50;99.90
5007;DHT22;2522;50.972;11.046;2022-10-16T10:45:11;20.40;99.90
5007;DHT22;2522;50.972;11.046;2022-10-16T10:47:45;20.40;99.90
5007;DHT22;2522;50.972;11.046;2022-10-16T10:50:17;20.30;99.90
5007;DHT22;2522;50.972;11.046;2022-10-16T10:52:55;20.20;99.90
5007;DHT22;2522;50.972;11.046;2022-10-16T10:55:26;20.10;99.90
5007;DHT22;2522;50.972;11.046;2022-10-16T10:58:05;20.00;99.90
5007;DHT22;2522;50.972;11.046;2022-10-16T11:00:38;19.90;99.90
5007;DHT22;2522;50.972;11.046;2022-10-16T11:03:08;19.80;99.90
5007;DHT22;2522;50.972;11.046;2022-10-16T11:05:41;19.80;99.90
5007;DHT22;2522;50.972;11.046;2022-10-16T11:08:11;19.70;99.90
5007;DHT22;2522;50.972;11.046;2022-10-16T11:10:42;19.60;99.90
5007;DHT22;2522;50.972;11.046;2022-10-16T11:13:15;19.60;99.90
5007;DHT22;2522;50.972;11.046;2022-10-16T11:15:43;19.50;99.90
5007;DHT22;2522;50.972;11.046;2022-10-16T11:18:11;19.40;99.90
5007;DHT22;2522;50.972;11.046;2022-10-16T11:20:45;19.40;99.90
5007;DHT22;2522;50.972;11.046;2022-10-16T11:23:14;19.30;99.90
5007;DHT22;2522;50.972;11.046;2022-10-16T11:25:42;19.30;99.90
5007;DHT22;2522;50.972;11.046;2022-10-16T11:28:11;19.20;99.90
5007;DHT22;2522;50.972;11.046;2022-10-16T11:30:40;19.20;99.90
5007;DHT22;2522;50.972;11.046;2022-10-16T11:33:12;19.10;99.90
5007;DHT22;2522;50.972;11.046;2022-10-16T11:35:46;19.10;99.90
5007;DHT22;2522;50.972;11.046;2022-10-16T11:38:15;19.10;99.90
5007;DHT22;2522;50.972;11.046;2022-10-16T11:40:46;19.10;99.90
5007;DHT22;2522;50.972;11.046;2022-10-16T11:43:15;19.10;99.90
5007;DHT22;2522;50.972;11.046;2022-10-16T11:45:43;19.20;99.90
5007;DHT22;2522;50.972;11.046;2022-10-16T11:48:15;19.20;99.90
5007;DHT22;2522;50.972;11.046;2022-10-16T11:50:48;19.30;99.90
5007;DHT22;2522;50.972;11.046;2022-10-16T11:53:18;19.30;99.90
5007;DHT22;2522;50.972;11.046;2022-10-16T11:55:48;19.30;99.90
5007;DHT22;2522;50.972;11.046;2022-10-16T11:58:16;19.20;99.90
5007;DHT22;2522;50.972;11.046;2022-10-16T12:00:47;19.20;99.90
5007;DHT22;2522;50.972;11.046;2022-10-16T12:03:22;19.20;99.90
5007;DHT22;2522;50.972;11.046;2022-10-16T12:05:58;19.10;99.90
5007;DHT22;2522;50.972;11.046;2022-10-16T12:08:26;19.10;99.90
5007;DHT22;2522;50.972;11.046;2022-10-16T12:10:54;19.00;99.90
5007;DHT22;2522;50.972;11.046;2022-10-16T12:13:32;19.00;99.90
5007;DHT22;2522;50.972;11.046;2022-10-16T12:16:08;19.00;99.90
5007;DHT22;2522;50.972;11.046;2022-10-16T12:18:46;18.90;99.90
5007;DHT22;2522;50.972;11.046;2022-10-16T12:21:15;19.00;99.90
5007;DHT22;2522;50.972;11.046;2022-10-16T12:23:47;19.00;99.90
5007;DHT22;2522;50.972;11.046;2022-10-16T12:26:14;19.10;99.90
5007;DHT22;2522;50.972;11.046;2022-10-16T12:28:50;19.10;99.90
5007;DHT22;2522;50.972;11.046;2022-10-16T12:31:17;19.10;99.90
5007;DHT22;2522;50.972;11.046;2022-10-16T12:33:51;19.10;99.90
5007;DHT22;2522;50.972;11.046;2022-10-16T12:36:27;19.10;99.90
5007;DHT22;2522;50.972;11.046;2022-10-16T12:38:55;19.10;99.90
5007;DHT22;2522;50.972;11.046;2022-10-16T12:41:25;19.20;99.90
5007;DHT22;2522;50.972;11.046;2022-10-16T12:43:53;19.20;99.90
5007;DHT22;2522;50.972;11.046;2022-10-16T12:46:24;19.20;99.90
5007;DHT22;2522;50.972;11.046;2022-10-16T12:49:05;19.20;99.90
5007;DHT22;2522;50.972;11.046;2022-10-16T12:51:35;19.20;99.90
5007;DHT22;2522;50.972;11.046;2022-10-16T12:54:02;19.20;99.90
5007;DHT22;2522;50.972;11.046;2022-10-16T12:56:33;19.30;99.90
5007;DHT22;2522;50.972;11.046;2022-10-16T12:59:04;19.40;99.90
5007;DHT22;2522;50.972;11.046;2022-10-16T13:01:36;19.40;99.90
5007;DHT22;2522;50.972;11.046;2022-10-16T13:04:15;19.50;99.90
5007;DHT22;2522;50.972;11.046;2022-10-16T13:06:49;19.50;99.90
5007;DHT22;2522;50.972;11.046;2022-10-16T13:09:27;19.50;99.90
5007;DHT22;2522;50.972;11.046;2022-10-16T13:11:59;19.50;99.90
5007;DHT22;2522;50.972;11.046;2022-10-16T13:14:32;19.50;99.90
5007;DHT22;2522;50.972;11.046;2022-10-16T13:17:04;19.50;99.90
5007;DHT22;2522;50.972;11.046;2022-10-16T13:19:34;19.50;99.90
5007;DHT22;2522;50.972;11.046;2022-10-16T13:22:05;19.60;99.90
5007;DHT22;2522;50.972;11.046;2022-10-16T13:24:42;19.60;99.90
5007;DHT22;2522;50.972;11.046;2022-10-16T13:27:14;19.70;99.90
5007;DHT22;2522;50.972;11.046;2022-10-16T13:29:43;19.80;99.90
5007;DHT22;2522;50.972;11.046;2022-10-16T13:32:10;19.90;99.90
5007;DHT22;2522;50.972;11.046;2022-10-16T13:34:43;19.90;99.90
5007;DHT22;2522;50.972;11.046;2022-10-16T13:37:17;19.90;99.90
5007;DHT22;2522;50.972;11.046;2022-10-16T13:39:44;20.00;99.90
5007;DHT22;2522;50.972;11.046;2022-10-16T13:42:12;20.00;99.90
5007;DHT22;2522;50.972;11.046;2022-10-16T13:44:40;20.10;99.90
5007;DHT22;2522;50.972;11.046;2022-10-16T13:47:15;20.10;99.90
5007;DHT22;2522;50.972;11.046;2022-10-16T13:49:42;20.10;99.90
5007;DHT22;2522;50.972;11.046;2022-10-16T13:52:15;20.10;99.90
5007;DHT22;2522;50.972;11.046;2022-10-16T13:54:44;20.10;99.90
5007;DHT22;2522;50.972;11.046;2022-10-16T13:57:12;20.20;99.90
5007;DHT22;2522;50.972;11.046;2022-10-16T13:59:39;20.20;99.90
5007;DHT22;2522;50.972;11.046;2022-10-16T14:02:09;20.30;99.90
5007;DHT22;2522;50.972;11.046;2022-10-16T14:04:40;20.30;99.90
5007;DHT22;2522;50.972;11.046;2022-10-16T14:07:12;20.30;99.90
5007;DHT22;2522;50.972;11.046;2022-10-16T14:09:40;20.30;99.90
5007;DHT22;2522;50.972;11.046;2022-10-16T14:15:04;20.30;99.90
5007;DHT22;2522;50.972;11.046;2022-10-16T14:17:32;20.30;99.90
5007;DHT22;2522;50.972;11.046;2022-10-16T14:20:00;20.20;99.90
5007;DHT22;2522;50.972;11.046;2022-10-16T14:22:29;20.20;99.90
5007;DHT22;2522;50.972;11.046;2022-10-16T14:24:56;20.20;99.90
5007;DHT22;2522;50.972;11.046;2022-10-16T14:27:25;20.20;99.90
5007;DHT22;2522;50.972;11.046;2022-10-16T14:30:05;20.20;99.90
5007;DHT22;2522;50.972;11.046;2022-10-16T14:32:34;20.20;99.90
5007;DHT22;2522;50.972;11.046;2022-10-16T14:35:01;20.20;99.90
5007;DHT22;2522;50.972;11.046;2022-10-16T14:37:28;20.10;99.90
5007;DHT22;2522;50.972;11.046;2022-10-16T14:39:55;20.10;99.90
5007;DHT22;2522;50.972;11.046;2022-10-16T14:42:24;20.10;99.90
5007;DHT22;2522;50.972;11.046;2022-10-16T14:44:51;20.00;99.90
5007;DHT22;2522;50.972;11.046;2022-10-16T14:47:21;20.00;99.90
5007;DHT22;2522;50.972;11.046;2022-10-16T14:49:50;19.90;99.90
5007;DHT22;2522;50.972;11.046;2022-10-16T14:52:17;19.90;99.90
5007;DHT22;2522;50.972;11.046;2022-10-16T14:54:46;19.90;99.90
5007;DHT22;2522;50.972;11.046;2022-10-16T14:57:16;19.90;99.90
5007;DHT22;2522;50.972;11.046;2022-10-16T14:59:43;19.90;99.90
5007;DHT22;2522;50.972;11.046;2022-10-16T15:02:15;19.90;99.90
5007;DHT22;2522;50.972;11.046;2022-10-16T15:04:45;19.80;99.90
5007;DHT22;2522;50.972;11.046;2022-10-16T15:07:12;19.80;99.90
5007;DHT22;2522;50.972;11.046;2022-10-16T15:09:39;19.80;99.90
5007;DHT22;2522;50.972;11.046;2022-10-16T15:12:06;19.70;99.90
5007;DHT22;2522;50.972;11.046;2022-10-16T15:14:33;19.70;99.90
5007;DHT22;2522;50.972;11.046;2022-10-16T15:17:00;19.70;99.90
5007;DHT22;2522;50.972;11.046;2022-10-16T15:19:27;19.70;99.90
5007;DHT22;2522;50.972;11.046;2022-10-16T15:21:55;19.80;99.90
5007;DHT22;2522;50.972;11.046;2022-10-16T15:24:24;19.80;99.90
5007;DHT22;2522;50.972;11.046;2022-10-16T15:26:51;19.80;99.90
5007;DHT22;2522;50.972;11.046;2022-10-16T15:29:18;19.80;99.90
5007;DHT22;2522;50.972;11.046;2022-10-16T15:31:47;19.80;99.90
5007;DHT22;2522;50.972;11.046;2022-10-16T15:34:14;19.80;99.90
5007;DHT22;2522;50.972;11.046;2022-10-16T15:36:41;19.80;99.90
5007;DHT22;2522;50.972;11.046;2022-10-16T15:39:12;19.80;99.90
5007;DHT22;2522;50.972;11.046;2022-10-16T15:41:39;19.70;99.90
5007;DHT22;2522;50.972;11.046;2022-10-16T15:44:06;19.60;99.90
5007;DHT22;2522;50.972;11.046;2022-10-16T15:46:33;19.60;99.90
5007;DHT22;2522;50.972;11.046;2022-10-16T15:49:02;19.50;99.90
5007;DHT22;2522;50.972;11.046;2022-10-16T15:51:29;19.40;99.90
5007;DHT22;2522;50.972;11.046;2022-10-16T15:53:58;19.40;99.90
5007;DHT22;2522;50.972;11.046;2022-10-16T15:56:28;19.30;99.90
5007;DHT22;2522;50.972;11.046;2022-10-16T15:58:58;19.30;99.90
5007;DHT22;2522;50.972;11.046;2022-10-16T16:01:25;19.20;99.90
5007;DHT22;2522;50.972;11.046;2022-10-16T16:03:54;19.20;99.90
5007;DHT22;2522;50.972;11.046;2022-10-16T16:06:21;19.20;99.90
5007;DHT22;2522;50.972;11.046;2022-10-16T16:08:49;19.20;99.90
5007;DHT22;2522;50.972;11.046;2022-10-16T16:11:16;19.10;99.90
5007;DHT22;2522;50.972;11.046;2022-10-16T16:13:44;19.10;99.90
5007;DHT22;2522;50.972;11.046;2022-10-16T16:16:12;19.10;99.90
5007;DHT22;2522;50.972;11.046;2022-10-16T16:18:39;19.10;99.90
5007;DHT22;2522;50.972;11.046;2022-10-16T16:21:06;19.00;99.90
5007;DHT22;2522;50.972;11.046;2022-10-16T16:23:34;19.00;99.90
5007;DHT22;2522;50.972;11.046;2022-10-16T16:26:04;18.90;99.90
5007;DHT22;2522;50.972;11.046;2022-10-16T16:28:31;18.90;99.90
5007;DHT22;2522;50.972;11.046;2022-10-16T16:30:59;18.80;99.90
5007;DHT22;2522;50.972;11.046;2022-10-16T16:33:26;18.70;99.90
5007;DHT22;2522;50.972;11.046;2022-10-16T16:35:55;18.70;99.90
5007;DHT22;2522;50.972;11.046;2022-10-16T16:38:22;18.60;99.90
5007;DHT22;2522;50.972;11.046;2022-10-16T16:40:49;18.60;99.90
5007;DHT22;2522;50.972;11.046;2022-10-16T16:43:17;18.50;99.90
5007;DHT22;2522;50.972;11.046;2022-10-16T16:45:43;18.40;99.90
5007;DHT22;2522;50.972;11.046;2022-10-16T16:48:12;18.40;99.90
5007;DHT22;2522;50.972;11.046;2022-10-16T16:50:39;18.30;99.90
5007;DHT22;2522;50.972;11.046;2022-10-16T16:53:05;18.10;99.90
5007;DHT22;2522;50.972;11.046;2022-10-16T16:55:32;18.20;99.90
5007;DHT22;2522;50.972;11.046;2022-10-16T16:57:59;18.10;99.90
5007;DHT22;2522;50.972;11.046;2022-10-16T17:00:28;18.10;99.90
5007;DHT22;2522;50.972;11.046;2022-10-16T17:02:56;18.00;99.90
5007;DHT22;2522;50.972;11.046;2022-10-16T17:05:24;18.00;99.90
5007;DHT22;2522;50.972;11.046;2022-10-16T17:07:51;17.90;99.90
5007;DHT22;2522;50.972;11.046;2022-10-16T17:10:18;17.90;99.90
5007;DHT22;2522;50.972;11.046;2022-10-16T17:12:44;17.90;99.90
5007;DHT22;2522;50.972;11.046;2022-10-16T17:15:11;17.90;99.90
5007;DHT22;2522;50.972;11.046;2022-10-16T17:17:38;17.80;99.90
5007;DHT22;2522;50.972;11.046;2022-10-16T17:20:05;17.80;99.90
5007;DHT22;2522;50.972;11.046;2022-10-16T17:22:35;17.80;99.90
5007;DHT22;2522;50.972;11.046;2022-10-16T17:25:02;17.70;99.90
5007;DHT22;2522;50.972;11.046;2022-10-16T17:27:31;17.70;99.90
5007;DHT22;2522;50.972;11.046;2022-10-16T17:29:58;17.70;99.90
5007;DHT22;2522;50.972;11.046;2022-10-16T17:32:25;17.60;99.90
5007;DHT22;2522;50.972;11.046;2022-10-16T17:34:52;17.60;99.90
5007;DHT22;2522;50.972;11.046;2022-10-16T17:37:18;17.60;99.90
5007;DHT22;2522;50.972;11.046;2022-10-16T17:39:47;17.50;99.90
5007;DHT22;2522;50.972;11.046;2022-10-16T17:42:15;17.50;99.90
5007;DHT22;2522;50.972;11.046;2022-10-16T17:44:42;17.40;99.90
5007;DHT22;2522;50.972;11.046;2022-10-16T17:47:09;17.40;99.90
5007;DHT22;2522;50.972;11.046;2022-10-16T17:49:36;17.40;99.90
5007;DHT22;2522;50.972;11.046;2022-10-16T17:52:03;17.40;99.90
5007;DHT22;2522;50.972;11.046;2022-10-16T17:54:29;17.30;99.90
5007;DHT22;2522;50.972;11.046;2022-10-16T17:56:58;17.30;99.90
5007;DHT22;2522;50.972;11.046;2022-10-16T17:59:24;17.30;99.90
5007;DHT22;2522;50.972;11.046;2022-10-16T18:01:52;17.20;99.90
5007;DHT22;2522;50.972;11.046;2022-10-16T18:04:19;17.20;99.90
5007;DHT22;2522;50.972;11.046;2022-10-16T18:06:46;17.20;99.90
5007;DHT22;2522;50.972;11.046;2022-10-16T18:09:13;17.20;99.90
5007;DHT22;2522;50.972;11.046;2022-10-16T18:11:42;17.10;99.90
5007;DHT22;2522;50.972;11.046;2022-10-16T18:14:11;17.10;99.90
5007;DHT22;2522;50.972;11.046;2022-10-16T18:16:38;17.10;99.90
5007;DHT22;2522;50.972;11.046;2022-10-16T18:19:04;17.10;99.90
5007;DHT22;2522;50.972;11.046;2022-10-16T18:21:31;17.00;99.90
5007;DHT22;2522;50.972;11.046;2022-10-16T18:23:58;17.00;99.90
5007;DHT22;2522;50.972;11.046;2022-10-16T18:26:25;17.00;99.90
5007;DHT22;2522;50.972;11.046;2022-10-16T18:28:52;16.90;99.90
5007;DHT22;2522;50.972;11.046;2022-10-16T18:31:21;16.90;99.90
5007;DHT22;2522;50.972;11.046;2022-10-16T18:33:49;16.90;99.90
5007;DHT22;2522;50.972;11.046;2022-10-16T18:36:17;16.90;99.90
5007;DHT22;2522;50.972;11.046;2022-10-16T18:38:44;16.90;99.90
5007;DHT22;2522;50.972;11.046;2022-10-16T18:41:10;16.80;99.90
5007;DHT22;2522;50.972;11.046;2022-10-16T18:43:37;16.80;99.90
5007;DHT22;2522;50.972;11.046;2022-10-16T18:46:05;16.80;99.90
5007;DHT22;2522;50.972;11.046;2022-10-16T18:48:34;16.80;99.90
5007;DHT22;2522;50.972;11.046;2022-10-16T18:51:05;16.80;99.90
5007;DHT22;2522;50.972;11.046;2022-10-16T18:53:31;16.80;99.90
5007;DHT22;2522;50.972;11.046;2022-10-16T18:55:58;16.70;99.90
5007;DHT22;2522;50.972;11.046;2022-10-16T18:58:25;16.70;99.90
5007;DHT22;2522;50.972;11.046;2022-10-16T19:00:52;16.60;99.90
5007;DHT22;2522;50.972;11.046;2022-10-16T19:03:18;16.60;99.90
5007;DHT22;2522;50.972;11.046;2022-10-16T19:05:47;16.50;99.90
5007;DHT22;2522;50.972;11.046;2022-10-16T19:08:14;16.50;99.90
5007;DHT22;2522;50.972;11.046;2022-10-16T19:10:41;16.50;99.90
5007;DHT22;2522;50.972;11.046;2022-10-16T19:13:08;16.40;99.90
5007;DHT22;2522;50.972;11.046;2022-10-16T19:15:39;16.40;99.90
5007;DHT22;2522;50.972;11.046;2022-10-16T19:18:06;16.40;99.90
5007;DHT22;2522;50.972;11.046;2022-10-16T19:20:33;16.40;99.90
5007;DHT22;2522;50.972;11.046;2022-10-16T19:23:01;16.40;99.90
5007;DHT22;2522;50.972;11.046;2022-10-16T19:25:28;16.40;99.90
5007;DHT22;2522;50.972;11.046;2022-10-16T19:27:55;16.40;99.90
5007;DHT22;2522;50.972;11.046;2022-10-16T19:30:22;16.30;99.90
5007;DHT22;2522;50.972;11.046;2022-10-16T19:32:49;16.30;99.90
5007;DHT22;2522;50.972;11.046;2022-10-16T19:35:17;16.30;99.90
5007;DHT22;2522;50.972;11.046;2022-10-16T19:37:44;16.30;99.90
5007;DHT22;2522;50.972;11.046;2022-10-16T19:40:12;16.30;99.90
5007;DHT22;2522;50.972;11.046;2022-10-16T19:42:38;16.30;99.90
5007;DHT22;2522;50.972;11.046;2022-10-16T19:45:09;16.20;99.90
5007;DHT22;2522;50.972;11.046;2022-10-16T19:47:36;16.20;99.90
5007;DHT22;2522;50.972;11.046;2022-10-16T19:50:04;16.20;99.90
5007;DHT22;2522;50.972;11.046;2022-10-16T19:52:33;16.10;99.90
5007;DHT22;2522;50.972;11.046;2022-10-16T19:54:59;16.10;99.90
5007;DHT22;2522;50.972;11.046;2022-10-16T19:57:27;16.10;99.90
5007;DHT22;2522;50.972;11.046;2022-10-16T19:59:56;16.10;99.90
5007;DHT22;2522;50.972;11.046;2022-10-16T20:02:23;16.00;99.90
5007;DHT22;2522;50.972;11.046;2022-10-16T20:04:50;16.00;99.90
5007;DHT22;2522;50.972;11.046;2022-10-16T20:07:17;16.00;99.90
5007;DHT22;2522;50.972;11.046;2022-10-16T20:09:45;16.00;99.90
5007;DHT22;2522;50.972;11.046;2022-10-16T20:12:12;16.00;99.90
5007;DHT22;2522;50.972;11.046;2022-10-16T20:14:40;16.00;99.90
5007;DHT22;2522;50.972;11.046;2022-10-16T20:17:16;16.00;99.90
5007;DHT22;2522;50.972;11.046;2022-10-16T20:19:56;16.00;99.90
5007;DHT22;2522;50.972;11.046;2022-10-16T20:22:23;16.00;99.90
5007;DHT22;2522;50.972;11.046;2022-10-16T20:24:50;16.00;99.90
5007;DHT22;2522;50.972;11.046;2022-10-16T20:27:17;16.00;99.90
5007;DHT22;2522;50.972;11.046;2022-10-16T20:29:45;16.00;99.90
5007;DHT22;2522;50.972;11.046;2022-10-16T20:32:12;16.00;99.90
5007;DHT22;2522;50.972;11.046;2022-10-16T20:34:38;16.00;99.90
5007;DHT22;2522;50.972;11.046;2022-10-16T20:37:05;15.90;99.90
5007;DHT22;2522;50.972;11.046;2022-10-16T20:39:32;16.00;99.90
5007;DHT22;2522;50.972;11.046;2022-10-16T20:41:59;15.90;99.90
5007;DHT22;2522;50.972;11.046;2022-10-16T20:44:26;15.90;99.90
5007;DHT22;2522;50.972;11.046;2022-10-16T20:46:54;15.90;99.90
5007;DHT22;2522;50.972;11.046;2022-10-16T20:49:21;15.90;99.90
5007;DHT22;2522;50.972;11.046;2022-10-16T20:51:47;15.80;99.90
5007;DHT22;2522;50.972;11.046;2022-10-16T20:54:15;15.90;99.90
5007;DHT22;2522;50.972;11.046;2022-10-16T20:56:42;15.90;99.90
5007;DHT22;2522;50.972;11.046;2022-10-16T20:59:09;15.90;99.90